Карточка аэропорта UHMA

Внимание!
Информация на этой странице в стадии наполнения.
Если вы не увидели какой-то информации, или заметили неточность - пожалуйста сообщите нам!
Спасибо!
Команда RU-STAFF
Название аэропортаУгольный
Название аэропорта (англ.)Ugolny
Превышение194 ft. (59.1 m.)
Координаты64°44.1', 177°44.28'
Высота перехода1600m
Эшелон переходаQFE>=755mm:FL070; QFE<755=>728:FL080; QFE<728:FL090
Коды ответчика6501-6537
Зона ОрВДМагадан РПИ (UHMM)
Данные METARUHMA 250900Z 11007MPS 9999 SCT008 11/10 Q1010 R02/////// NOSIG RMK MID 11008MPS END R02/11007G10MPS MT OBSC QFE753/1005
Проноз погоды (TAF)UHMA 250754Z 2509/2609 12006G11MPS 9999 SCT015 TEMPO 2509/2521 06003MPS 1100 -RA BR BKN002 BKN011 BECMG 2521/2524 SCT005 BKN015 TEMPO 2600/2609 08009G14MPS 2100 -SHRA BR BKN003 BKN015CB
NOTAMshow/hide NOTAM
AWOS   TABLE

Информация о ВПП


Диспетчерские позиции

Позывной Наименование органа УВД Частота
UHMA_APPАнадырь-Подход124.0
UHMA_TWRАнадырь-Старт124.0



Спутниковое изображение